MicroStrategy Return on Tangible Equity 2010-2023 | MSTR

Current and historical return on tangible equity values for MicroStrategy (MSTR) over the last 10 years. Return on tangible equity can be defined as the amount of net income returned as a percentage of shareholders equity, after subtracting intangible assets, goodwill and preferred equity.
MicroStrategy Return On Tangible Equity Historical Data
Date TTM Net Income Tangible Equity Return on Tangible Equity
2023-12-31 $0.43B $-1.46B -27.98%
2023-09-30 $0.09B $-1.61B -5.22%
2023-06-30 $0.21B $-1.50B -11.02%
2023-03-31 $-0.88B $-1.56B 43.10%
2022-12-31 $-1.47B $-2.22B 68.18%
2022-09-30 $-1.31B $-2.19B 63.35%
2022-06-30 $-1.32B $-2.18B 65.76%
2022-03-31 $-0.56B $-2.03B 28.43%
2021-12-31 $-0.54B $-1.87B 29.03%
2021-09-30 $-0.44B $-1.94B 29.46%
2021-06-30 $-0.42B $-1.97B 41.50%
2021-03-31 $-0.12B $-1.58B 29.21%
2020-12-31 $-0.01B $-0.50B -6.56%
2020-09-30 $0.00B $0.01B 0.56%
2020-06-30 $0.03B $0.46B 5.35%
2020-03-31 $0.04B $0.46B 8.65%
2019-12-31 $0.03B $0.51B 6.78%
2019-09-30 $0.03B $0.52B 4.94%
2019-06-30 $0.03B $0.50B 5.22%
2019-03-31 $0.01B $0.48B 2.30%
2018-12-31 $0.02B $0.53B 3.83%
2018-09-30 $-0.01B $0.64B -0.81%
2018-06-30 $-0.00B $0.62B 0.00%
2018-03-31 $0.00B $0.61B 0.83%
2017-12-31 $0.02B $0.61B 3.19%
2017-09-30 $0.08B $0.61B 13.07%
2017-06-30 $0.09B $0.59B 15.22%
2017-03-31 $0.09B $0.57B 17.62%
2016-12-31 $0.09B $0.55B 18.13%
2016-09-30 $0.10B $0.52B 20.49%
2016-06-30 $0.10B $0.49B 21.08%
2016-03-31 $0.10B $0.47B 23.12%
2015-12-31 $0.11B $0.46B 26.37%
2015-09-30 $0.09B $0.41B 24.35%
2015-06-30 $0.06B $0.38B 18.93%
2015-03-31 $0.03B $0.35B 10.09%
2014-12-31 $0.01B $0.32B 1.96%
2014-09-30 $-0.00B $0.30B -0.33%
2014-06-30 $0.02B $0.30B 5.64%
2014-03-31 $0.03B $0.31B 8.47%
2013-12-31 $0.08B $0.31B 28.87%
2013-09-30 $0.08B $0.29B 28.85%
2013-06-30 $0.06B $0.27B 26.87%
2013-03-31 $0.07B $0.28B 34.12%
2012-12-31 $0.02B $0.20B 10.81%
2012-09-30 $0.02B $0.19B 11.85%
2012-06-30 $0.02B $0.18B 12.30%
2012-03-31 $0.02B $0.17B 10.30%
2011-12-31 $0.02B $0.17B 11.20%
2011-09-30 $0.03B $0.16B 17.34%
2011-06-30 $0.03B $0.16B 18.83%
2011-03-31 $0.04B $0.15B 23.42%
2010-12-31 $0.04B $0.15B 25.11%
2010-09-30 $0.05B $0.16B 24.54%
2010-06-30 $0.06B $0.19B 30.46%
2010-03-31 $0.06B $0.21B 30.14%
2009-12-31 $0.08B $0.21B 40.65%
Sector Industry Market Cap Revenue
Computer and Technology Computer Software $22.714B $0.496B
MicroStrategy Incorporated, a leading worldwide provider of business intelligence software, today announced that GT Nexus has selected MicroStrategy to power the customer-facing analytics and reporting capabilities on its Global Logistics portal. The GT Nexus portal is an on demand technology platform that is used by importers, exporters, transportation carriers, suppliers, banks, and other partners to manage goods that are moving around the world. The GT Nexus system captures and stores hard-to-get data associated with global supply chains, and then fuels a range of Web applications that can be used by constituents to lower supply chain costs and improve control. MicroStrategy will help GT Nexus to deliver a wide range of analytics and reporting capabilities to its customers, which include Home Depot, Kmart, Xerox, Weyerhaeuser, and American Eagle Outfitters.
Stock Name Country Market Cap PE Ratio
Microsoft (MSFT) United States $3028.423B 36.85
Oracle (ORCL) United States $316.325B 25.75
Salesforce (CRM) United States $268.380B 44.77
Adobe (ADBE) United States $211.859B 35.42
Intuit (INTU) United States $176.646B 59.24
Synopsys (SNPS) United States $80.444B 58.03
Cadence Design Systems (CDNS) United States $76.706B 73.00
Dassault Systemes SA (DASTY) France $55.010B 36.05
Autodesk (ADSK) United States $46.615B 45.88
ANSYS (ANSS) United States $28.457B 48.01
PTC (PTC) United States $21.572B 63.53
SS&C Technologies Holdings (SSNC) United States $15.076B 14.84
Manhattan Associates (MANH) United States $14.200B 75.37
Open Text (OTEX) Canada $9.837B 10.55
Descartes Systems Group (DSGX) Canada $8.016B 70.22
Trend Micro (TMICY) Japan $7.326B 65.00
Pegasystems (PEGA) United States $4.976B 68.16
CommVault Systems (CVLT) United States $4.254B 75.91
Blackbaud (BLKB) United States $4.234B 37.88
ACI Worldwide (ACIW) United States $3.555B 18.28
Progress Software (PRGS) United States $2.257B 14.13
Verint Systems (VRNT) United States $1.893B 17.65
BlackBerry (BB) Canada $1.703B 0.00
Sapiens (SPNS) Israel $1.692B 23.98
PROS Holdings (PRO) United States $1.610B 0.00
Simulations Plus (SLP) United States $0.919B 67.65
Magic Software Enterprises (MGIC) Israel $0.577B 11.87
Rand Worldwide (RWWI) United States $0.574B 0.00
American Software (AMSWA) United States $0.349B 29.19
Canaan (CAN) China $0.222B 0.00
Rigetti Computing (RGTI) United States $0.189B 0.00
OptimizeRx (OPRX) United States $0.163B 0.00
Icad Inc (ICAD) United States $0.041B 0.00
Wetouch Technology (WETH) $0.032B 0.00
NetSol Technologies (NTWK) United States $0.031B 0.00
Hanryu Holdings (HRYU) South Korea $0.028B 0.00
Neonode (NEON) Sweden $0.026B 0.00
Smith Micro Software (SMSI) United States $0.020B 0.00
GSE Systems (GVP) United States $0.009B 0.00
SAP SE (SAP) Germany $0.000B 48.08